createdAt,value
2022-08-18T00:01:49.533Z,29.7
2022-08-18T00:06:09.897Z,29.8
2022-08-18T00:07:12.113Z,29.7
2022-08-18T00:08:14.329Z,29.8
2022-08-18T00:09:15.979Z,29.8
2022-08-18T00:10:19.614Z,29.8
2022-08-18T00:11:22.085Z,29.8
2022-08-18T00:12:24.292Z,29.8
2022-08-18T00:13:26.488Z,29.8
2022-08-18T00:14:28.409Z,29.8
2022-08-18T00:15:30.613Z,29.8
2022-08-18T00:16:37.271Z,29.8
2022-08-18T00:17:39.488Z,29.8
2022-08-18T00:18:41.971Z,29.8
2022-08-18T00:20:48.911Z,29.8
2022-08-18T00:21:51.315Z,29.8
2022-08-18T00:22:53.952Z,29.8
2022-08-18T00:23:56.124Z,29.8
2022-08-18T00:24:58.605Z,29.8
2022-08-18T00:26:00.663Z,29.8
2022-08-18T00:27:03.157Z,29.8
2022-08-18T00:28:05.371Z,29.8
2022-08-18T00:29:07.586Z,29.8
2022-08-18T00:30:09.518Z,29.8
2022-08-18T00:31:11.450Z,29.8
2022-08-18T00:32:13.656Z,29.9
2022-08-18T00:33:15.861Z,29.9
2022-08-18T00:34:18.819Z,29.9
2022-08-18T00:35:21.033Z,29.9
2022-08-18T00:36:23.225Z,29.9
2022-08-18T00:37:25.715Z,29.9
2022-08-18T00:38:28.190Z,29.9
2022-08-18T00:41:40.385Z,29.9
2022-08-18T00:42:42.858Z,29.9
2022-08-18T00:43:44.803Z,29.9
2022-08-18T00:44:47.012Z,29.9
2022-08-18T00:45:49.221Z,29.9
2022-08-18T00:46:51.143Z,29.9
2022-08-18T00:47:54.261Z,29.9
2022-08-18T00:48:57.332Z,29.9
2022-08-18T00:49:59.012Z,29.9
2022-08-18T00:51:00.941Z,29.9
2022-08-18T00:52:03.141Z,29.9
2022-08-18T00:53:05.637Z,29.9
2022-08-18T00:54:07.847Z,29.9
2022-08-18T00:55:10.316Z,29.9
2022-08-18T00:56:12.797Z,29.9
2022-08-18T00:57:14.439Z,29.9
2022-08-18T00:58:16.349Z,29.9
2022-08-18T00:59:18.552Z,30
2022-08-18T01:00:20.495Z,29.9
2022-08-18T01:01:23.167Z,29.9
2022-08-18T01:02:25.955Z,30
2022-08-18T01:03:27.858Z,30
2022-08-18T01:04:30.077Z,30
2022-08-18T01:05:32.292Z,30
2022-08-18T01:06:34.512Z,30
2022-08-18T01:07:36.724Z,30
2022-08-18T01:09:44.198Z,30
2022-08-18T01:10:45.837Z,30
2022-08-18T01:11:48.323Z,30
2022-08-18T01:12:50.534Z,30
2022-08-18T01:13:52.458Z,30
2022-08-18T01:14:54.656Z,30
2022-08-18T01:15:56.892Z,30
2022-08-18T01:16:59.138Z,30
2022-08-18T01:18:01.334Z,30
2022-08-18T01:19:03.818Z,30
2022-08-18T01:20:06.317Z,30
2022-08-18T01:21:08.254Z,30
2022-08-18T01:22:10.467Z,30
2022-08-18T01:23:12.946Z,30
2022-08-18T01:25:20.172Z,30
2022-08-18T01:26:26.360Z,30
2022-08-18T01:27:28.015Z,30
2022-08-18T01:28:30.219Z,30
2022-08-18T01:29:32.123Z,30
2022-08-18T01:30:34.601Z,30
2022-08-18T01:31:36.531Z,30
2022-08-18T01:32:38.469Z,30
2022-08-18T01:33:42.777Z,30
2022-08-18T01:34:44.703Z,30
2022-08-18T01:35:47.175Z,30
2022-08-18T01:36:49.373Z,30
2022-08-18T01:37:52.462Z,30
2022-08-18T01:38:55.027Z,30
2022-08-18T01:42:07.634Z,30
2022-08-18T01:43:10.397Z,30
2022-08-18T01:44:12.343Z,30
2022-08-18T01:45:14.306Z,30
2022-08-18T01:47:21.498Z,30
2022-08-18T01:48:23.691Z,30
2022-08-18T01:49:26.167Z,30
2022-08-18T01:50:28.372Z,30
2022-08-18T01:52:35.564Z,30
2022-08-18T01:53:37.488Z,30
2022-08-18T01:55:44.696Z,30
2022-08-18T01:56:47.182Z,30
2022-08-18T01:57:49.978Z,30
2022-08-18T01:59:58.148Z,30
2022-08-18T02:01:00.628Z,30
2022-08-18T02:02:03.016Z,30
2022-08-18T02:03:05.415Z,30
2022-08-18T02:05:12.887Z,30
2022-08-18T02:06:16.696Z,30
2022-08-18T02:08:29.820Z,30
2022-08-18T02:09:35.432Z,30
2022-08-18T02:10:37.636Z,30
2022-08-18T02:11:39.829Z,30
2022-08-18T02:12:42.039Z,30
2022-08-18T02:13:44.534Z,30
2022-08-18T02:14:47.207Z,30
2022-08-18T02:15:50.875Z,30
2022-08-18T02:16:55.409Z,30
2022-08-18T02:18:01.392Z,30
2022-08-18T02:19:03.302Z,30
2022-08-18T02:20:04.961Z,30
2022-08-18T02:21:09.113Z,30
2022-08-18T02:22:13.131Z,30
2022-08-18T02:23:15.041Z,30
2022-08-18T02:24:16.965Z,30
2022-08-18T02:25:19.439Z,30
2022-08-18T02:26:21.653Z,30
2022-08-18T02:27:24.153Z,30
2022-08-18T02:29:31.062Z,30
2022-08-18T02:30:33.028Z,30
2022-08-18T02:31:35.250Z,30
2022-08-18T02:32:37.456Z,30
2022-08-18T02:33:39.091Z,30
2022-08-18T02:34:45.064Z,30
2022-08-18T02:35:46.960Z,30
2022-08-18T02:36:49.442Z,30.1
2022-08-18T02:40:02.211Z,30
2022-08-18T02:41:04.320Z,30
2022-08-18T02:42:06.533Z,30
2022-08-18T02:43:08.734Z,30
2022-08-18T02:44:11.220Z,30
2022-08-18T02:45:13.017Z,30
2022-08-18T02:46:14.964Z,30
2022-08-18T02:47:17.201Z,30
2022-08-18T02:48:19.483Z,30
2022-08-18T02:49:21.476Z,30
2022-08-18T02:50:23.458Z,30
2022-08-18T02:51:27.065Z,30
2022-08-18T02:52:29.305Z,30
2022-08-18T02:53:30.970Z,30
2022-08-18T02:54:33.155Z,30
2022-08-18T02:55:35.333Z,30
2022-08-18T02:57:41.707Z,30.1
2022-08-18T02:58:43.334Z,30.1
2022-08-18T03:00:50.531Z,30.1
2022-08-18T03:01:52.966Z,30.1
2022-08-18T03:02:55.211Z,30.1
2022-08-18T03:03:57.567Z,30
2022-08-18T03:05:00.046Z,30
2022-08-18T03:06:02.258Z,30
2022-08-18T03:07:04.746Z,30
2022-08-18T03:08:07.021Z,29.9
2022-08-18T03:09:09.510Z,29.9
2022-08-18T03:11:16.726Z,29.9
2022-08-18T03:12:19.191Z,29.8
2022-08-18T03:13:21.418Z,29.8
2022-08-18T03:14:23.317Z,29.8
2022-08-18T03:15:28.635Z,29.8
2022-08-18T03:16:31.019Z,29.8
2022-08-18T03:17:33.512Z,29.8
2022-08-18T03:18:35.720Z,29.8
2022-08-18T03:19:37.633Z,29.7
2022-08-18T03:20:41.860Z,29.7
2022-08-18T03:21:46.577Z,29.7
2022-08-18T03:22:51.081Z,29.7
2022-08-18T03:24:57.755Z,29.7
2022-08-18T03:25:59.960Z,29.7
2022-08-18T03:27:02.282Z,29.6
2022-08-18T03:28:04.759Z,29.6
2022-08-18T03:29:06.973Z,29.6
2022-08-18T03:31:13.887Z,29.6
2022-08-18T03:32:15.796Z,29.6
2022-08-18T03:33:17.700Z,29.6
2022-08-18T03:34:20.063Z,29.6
2022-08-18T03:35:22.314Z,29.6
2022-08-18T03:36:23.953Z,29.6
2022-08-18T03:37:26.439Z,29.6
2022-08-18T03:38:28.640Z,29.6
2022-08-18T03:39:30.789Z,29.6
2022-08-18T03:40:33.151Z,29.6
2022-08-18T03:42:40.353Z,29.5
2022-08-18T03:44:47.567Z,29.5
2022-08-18T03:45:49.779Z,29.5
2022-08-18T03:46:51.978Z,29.5
2022-08-18T03:47:54.754Z,29.5
2022-08-18T03:48:57.322Z,29.5
2022-08-18T03:49:59.538Z,29.5
2022-08-18T03:52:06.744Z,29.5
2022-08-18T03:53:08.942Z,29.5
2022-08-18T03:54:11.148Z,29.5
2022-08-18T03:55:13.635Z,29.5
2022-08-18T03:57:21.107Z,29.5
2022-08-18T03:58:23.304Z,29.5
2022-08-18T03:59:25.258Z,29.5
2022-08-18T04:00:27.784Z,29.5
2022-08-18T04:01:29.917Z,29.5
2022-08-18T04:02:31.744Z,29.5
2022-08-18T04:03:34.061Z,29.5
2022-08-18T04:04:36.950Z,29.5
2022-08-18T04:05:42.921Z,29.5
2022-08-18T04:06:45.401Z,29.5
2022-08-18T04:07:47.785Z,29.5
2022-08-18T04:08:50.363Z,29.5
2022-08-18T04:09:52.574Z,29.5
2022-08-18T04:10:54.756Z,29.5
2022-08-18T04:11:57.235Z,29.5
2022-08-18T04:12:59.443Z,29.5
2022-08-18T04:14:02.923Z,29.5
2022-08-18T04:15:05.426Z,29.5
2022-08-18T04:16:07.918Z,29.5
2022-08-18T04:17:10.397Z,29.5
2022-08-18T04:18:12.904Z,29.5
2022-08-18T04:20:20.105Z,29.5
2022-08-18T04:21:22.309Z,29.5
2022-08-18T04:22:24.260Z,29.5
2022-08-18T04:23:26.612Z,29.5
2022-08-18T04:25:34.425Z,29.4
2022-08-18T04:26:36.896Z,29.5
2022-08-18T04:27:38.815Z,29.4
2022-08-18T04:28:40.215Z,29.5
2022-08-18T04:29:42.693Z,29.4
2022-08-18T04:30:44.367Z,29.4
2022-08-18T04:31:46.852Z,29.4
2022-08-18T04:32:49.340Z,29.5
2022-08-18T04:33:51.818Z,29.4
2022-08-18T04:34:54.563Z,29.4
2022-08-18T04:36:00.274Z,29.5
2022-08-18T04:37:02.512Z,29.4
2022-08-18T04:38:04.156Z,29.4
2022-08-18T04:39:06.082Z,29.4
2022-08-18T04:40:08.334Z,29.4
2022-08-18T04:41:15.275Z,29.4
2022-08-18T04:42:17.754Z,29.4
2022-08-18T04:43:20.014Z,29.4
2022-08-18T04:44:22.517Z,29.4
2022-08-18T04:45:24.724Z,29.4
2022-08-18T04:46:26.940Z,29.4
2022-08-18T04:47:30.283Z,29.4
2022-08-18T04:48:33.252Z,29.4
2022-08-18T04:49:34.911Z,29.4
2022-08-18T04:50:37.092Z,29.4
2022-08-18T04:52:44.315Z,29.4
2022-08-18T04:53:45.976Z,29.4
2022-08-18T04:54:48.173Z,29.4
2022-08-18T04:55:50.083Z,29.4
2022-08-18T04:56:52.317Z,29.4
2022-08-18T04:57:55.016Z,29.4
2022-08-18T04:58:57.239Z,29.4
2022-08-18T04:59:59.156Z,29.4
2022-08-18T05:01:01.377Z,29.4
2022-08-18T05:02:03.800Z,29.4
2022-08-18T05:03:06.291Z,29.4
2022-08-18T05:04:08.234Z,29.4
2022-08-18T05:05:10.150Z,29.4
2022-08-18T05:06:12.743Z,29.4
2022-08-18T05:07:16.579Z,29.4
2022-08-18T05:08:19.062Z,29.4
2022-08-18T05:10:25.976Z,29.4
2022-08-18T05:11:28.450Z,29.4
2022-08-18T05:12:30.654Z,29.4
2022-08-18T05:13:32.853Z,29.4
2022-08-18T05:14:34.226Z,29.4
2022-08-18T05:18:52.995Z,29.4
2022-08-18T05:19:55.932Z,29.4
2022-08-18T05:20:59.921Z,29.4
2022-08-18T05:23:15.378Z,29.4
2022-08-18T05:24:17.582Z,29.4
2022-08-18T05:25:19.785Z,29.4
2022-08-18T05:26:21.687Z,29.4
2022-08-18T05:27:23.895Z,29.4
2022-08-18T05:28:26.120Z,29.4
2022-08-18T05:30:33.337Z,29.4
2022-08-18T05:31:35.265Z,29.4
2022-08-18T05:33:42.484Z,29.4
2022-08-18T05:34:44.960Z,29.4
2022-08-18T05:35:46.600Z,29.4
2022-08-18T05:36:48.839Z,29.4
2022-08-18T05:37:50.786Z,29.4
2022-08-18T05:38:53.730Z,29.4
2022-08-18T05:39:57.020Z,29.4
2022-08-18T05:41:00.171Z,29.4
2022-08-18T05:42:01.813Z,29.4
2022-08-18T05:43:04.043Z,29.4
2022-08-18T05:44:06.243Z,29.4
2022-08-18T05:45:08.441Z,29.4
2022-08-18T05:46:10.369Z,29.4
2022-08-18T05:47:12.866Z,29.4
2022-08-18T05:48:14.773Z,29.4
2022-08-18T05:49:17.251Z,29.4
2022-08-18T05:50:19.454Z,29.4
2022-08-18T05:51:21.084Z,29.4
2022-08-18T05:52:23.014Z,29.4
2022-08-18T05:53:25.214Z,29.4
2022-08-18T05:54:31.428Z,29.4
2022-08-18T05:55:33.099Z,29.4
2022-08-18T05:56:35.048Z,29.4
2022-08-18T05:57:36.971Z,29.4
2022-08-18T05:58:38.948Z,29.4
2022-08-18T05:59:41.163Z,29.4
2022-08-18T06:00:43.644Z,29.4
2022-08-18T06:01:45.970Z,29.4
2022-08-18T06:02:48.246Z,29.4
2022-08-18T06:03:50.587Z,29.4
2022-08-18T06:04:52.814Z,29.4
2022-08-18T06:05:55.338Z,29.4
2022-08-18T06:06:57.587Z,29.4
2022-08-18T06:07:59.774Z,29.4
2022-08-18T06:09:02.011Z,29.4
2022-08-18T06:10:04.230Z,29.4
2022-08-18T06:12:11.474Z,29.4
2022-08-18T06:13:13.960Z,29.4
2022-08-18T06:14:16.144Z,29.4
2022-08-18T06:15:18.078Z,29.4
2022-08-18T06:16:19.746Z,29.4
2022-08-18T06:17:21.983Z,29.4
2022-08-18T06:18:24.238Z,29.3
2022-08-18T06:19:25.895Z,29.3
2022-08-18T06:20:28.178Z,29.3
2022-08-18T06:21:30.485Z,29.3
2022-08-18T06:23:42.450Z,29.3
2022-08-18T06:24:44.672Z,29.3
2022-08-18T06:25:46.885Z,29.3
2022-08-18T06:26:49.102Z,29.3
2022-08-18T06:27:52.482Z,29.3
2022-08-18T06:28:55.226Z,29.3
2022-08-18T06:29:58.660Z,29.3
2022-08-18T06:31:01.158Z,29.3
2022-08-18T06:32:03.687Z,29.3
2022-08-18T06:33:05.622Z,29.3
2022-08-18T06:34:07.820Z,29.3
2022-08-18T06:35:10.031Z,29.3
2022-08-18T06:36:13.641Z,29.3
2022-08-18T06:37:19.610Z,29.3
2022-08-18T06:38:21.539Z,29.3
2022-08-18T06:39:23.759Z,29.3
2022-08-18T06:40:26.093Z,29.3
2022-08-18T06:42:38.735Z,29.3
2022-08-18T06:43:40.785Z,29.3
2022-08-18T06:44:43.267Z,29.3
2022-08-18T06:45:45.473Z,29.3
2022-08-18T06:46:48.000Z,29.3
2022-08-18T06:47:50.641Z,29.3
2022-08-18T06:48:53.547Z,29.3
2022-08-18T06:49:55.765Z,29.3
2022-08-18T06:50:57.437Z,29.3
2022-08-18T06:51:59.375Z,29.3
2022-08-18T06:53:01.073Z,29.3
2022-08-18T06:54:03.309Z,29.3
2022-08-18T06:55:04.950Z,29.3
2022-08-18T06:57:11.618Z,29.3
2022-08-18T06:58:13.525Z,29.3
2022-08-18T06:59:16.033Z,29.3
2022-08-18T07:00:18.287Z,29.3
2022-08-18T07:01:21.054Z,29.3
2022-08-18T07:02:23.436Z,29.3
2022-08-18T07:03:25.965Z,29.3
2022-08-18T07:04:28.179Z,29.3
2022-08-18T07:05:30.694Z,29.3
2022-08-18T07:06:32.944Z,29.3
2022-08-18T07:08:39.870Z,29.3
2022-08-18T07:09:42.067Z,29.3
2022-08-18T07:10:43.996Z,29.3
2022-08-18T07:11:46.485Z,29.3
2022-08-18T07:12:48.696Z,29.3
2022-08-18T07:14:55.903Z,29.3
2022-08-18T07:15:58.413Z,29.3
2022-08-18T07:17:01.110Z,29.3
2022-08-18T07:18:03.593Z,29.3
2022-08-18T07:19:06.070Z,29.3
2022-08-18T07:20:08.278Z,29.3
2022-08-18T07:21:09.654Z,29.3
2022-08-18T07:22:11.883Z,29.3
2022-08-18T07:23:14.104Z,29.3
2022-08-18T07:25:20.750Z,29.3
2022-08-18T07:26:21.835Z,29.3
2022-08-18T07:27:24.330Z,29.3
2022-08-18T07:28:27.762Z,29.3
2022-08-18T07:29:29.438Z,29.3
2022-08-18T07:30:31.367Z,29.3
2022-08-18T07:31:33.031Z,29.3
2022-08-18T07:32:35.530Z,29.3
2022-08-18T07:33:37.748Z,29.3
2022-08-18T07:34:39.113Z,29.3
2022-08-18T07:35:41.622Z,29.3
2022-08-18T07:36:43.828Z,29.3
2022-08-18T07:37:46.175Z,29.3
2022-08-18T07:38:48.584Z,29.4
2022-08-18T07:39:51.880Z,29.3
2022-08-18T07:40:53.966Z,29.3
2022-08-18T07:41:55.929Z,29.4
2022-08-18T07:44:03.129Z,29.4
2022-08-18T07:45:05.363Z,29.4
2022-08-18T07:46:07.861Z,29.4
2022-08-18T07:47:09.790Z,29.4
2022-08-18T07:53:39.325Z,29.4
2022-08-18T07:55:48.505Z,29.4
2022-08-18T07:56:51.002Z,29.3
2022-08-18T07:57:53.498Z,29.4
2022-08-18T07:58:56.616Z,29.3
2022-08-18T07:59:58.832Z,29.3
2022-08-18T08:01:01.689Z,29.3
2022-08-18T08:02:04.249Z,29.3
2022-08-18T08:03:06.387Z,29.3
2022-08-18T08:05:15.570Z,29.3
2022-08-18T08:06:17.786Z,29.4
2022-08-18T08:08:26.370Z,29.3
2022-08-18T08:09:28.585Z,29.4
2022-08-18T08:10:31.114Z,29.4
2022-08-18T08:11:33.617Z,29.4
2022-08-18T08:12:36.126Z,29.3
2022-08-18T08:14:43.738Z,29.3
2022-08-18T08:15:45.965Z,29.4
2022-08-18T08:16:48.455Z,29.3
2022-08-18T08:18:55.662Z,29.3
2022-08-18T08:21:02.655Z,29.3
2022-08-18T08:22:04.907Z,29.3
2022-08-18T08:23:07.147Z,29.3
2022-08-18T08:24:09.676Z,29.3
2022-08-18T08:26:16.973Z,29.4
2022-08-18T08:27:19.209Z,29.3
2022-08-18T08:28:21.770Z,29.3
2022-08-18T08:29:24.338Z,29.3
2022-08-18T08:30:27.638Z,29.3
2022-08-18T08:32:37.534Z,29.3
2022-08-18T08:33:39.533Z,29.4
2022-08-18T08:34:42.074Z,29.3
2022-08-18T08:36:49.215Z,29.3
2022-08-18T08:37:52.211Z,29.3
2022-08-18T08:38:58.789Z,29.3
2022-08-18T08:40:01.023Z,29.3
2022-08-18T08:41:03.458Z,29.3
2022-08-18T08:43:10.389Z,29.3
2022-08-18T08:44:12.349Z,29.3
2022-08-18T08:45:14.881Z,29.3
2022-08-18T08:46:16.805Z,29.3
2022-08-18T08:48:24.065Z,29.3
2022-08-18T08:49:26.361Z,29.3
2022-08-18T08:50:28.917Z,29.3
2022-08-18T08:51:31.139Z,29.3
2022-08-18T08:52:34.610Z,29.3
2022-08-18T08:53:36.858Z,29.3
2022-08-18T08:54:39.357Z,29.3
2022-08-18T08:55:41.869Z,29.3
2022-08-18T08:56:44.112Z,29.3
2022-08-18T08:57:45.879Z,29.3
2022-08-18T08:58:48.611Z,29.3
2022-08-18T08:59:50.564Z,29.3
2022-08-18T09:00:52.565Z,29.3
2022-08-18T09:01:54.844Z,29.3
2022-08-18T09:02:57.308Z,29.3
2022-08-18T09:03:59.353Z,29.3
2022-08-18T09:06:06.611Z,29.3
2022-08-18T09:07:09.136Z,29.3
2022-08-18T09:08:11.660Z,29.3
2022-08-18T09:09:13.893Z,29.3
2022-08-18T09:10:15.806Z,29.3
2022-08-18T09:11:18.106Z,29.3
2022-08-18T09:12:19.789Z,29.3
2022-08-18T09:14:27.272Z,29.3
2022-08-18T09:15:28.921Z,29.3
2022-08-18T09:16:32.182Z,29.3
2022-08-18T09:17:35.931Z,29.3
2022-08-18T09:18:38.409Z,29.3
2022-08-18T09:19:40.072Z,29.3
2022-08-18T09:21:47.270Z,29.4
2022-08-18T09:22:49.524Z,29.3
2022-08-18T09:23:51.847Z,29.3
2022-08-18T09:24:53.493Z,29.3
2022-08-18T09:25:55.976Z,29.3
2022-08-18T09:26:58.193Z,29.4
2022-08-18T09:29:05.097Z,29.4
2022-08-18T09:30:09.010Z,29.4
2022-08-18T09:31:11.648Z,29.4
2022-08-18T09:32:13.887Z,29.4
2022-08-18T09:33:21.019Z,29.4
2022-08-18T09:34:26.231Z,29.4
2022-08-18T09:35:28.187Z,29.3
2022-08-18T09:36:30.134Z,29.4
2022-08-18T09:37:34.153Z,29.4
2022-08-18T09:38:36.368Z,29.4
2022-08-18T09:39:40.819Z,29.4
2022-08-18T09:41:50.283Z,29.4
2022-08-18T09:42:51.951Z,29.4
2022-08-18T09:43:54.187Z,29.4
2022-08-18T09:44:56.399Z,29.4
2022-08-18T09:46:01.957Z,29.4
2022-08-18T09:47:04.913Z,29.4
2022-08-18T09:51:24.352Z,29.4
2022-08-18T09:52:26.496Z,29.4
2022-08-18T09:53:29.578Z,29.4
2022-08-18T09:54:33.460Z,29.4
2022-08-18T09:55:36.889Z,29.4
2022-08-18T09:57:45.932Z,29.4
2022-08-18T09:58:51.623Z,29.4
2022-08-18T09:59:54.067Z,29.4
2022-08-18T10:00:56.539Z,29.4
2022-08-18T10:01:59.682Z,29.4
2022-08-18T10:03:07.083Z,29.4
2022-08-18T10:04:13.235Z,29.4
2022-08-18T10:05:16.893Z,29.4
2022-08-18T10:07:28.760Z,29.4
2022-08-18T10:08:35.596Z,29.4
2022-08-18T10:12:55.629Z,29.4
2022-08-18T10:13:58.138Z,29.4
2022-08-18T10:15:00.625Z,29.4
2022-08-18T10:18:14.094Z,29.4
2022-08-18T10:19:17.664Z,29.4
2022-08-18T10:21:25.417Z,29.4
2022-08-18T10:24:44.978Z,29.4
2022-08-18T10:25:48.661Z,29.4
2022-08-18T10:27:55.985Z,29.4
2022-08-18T10:28:58.282Z,29.4
2022-08-18T10:30:00.770Z,29.4
2022-08-18T10:34:20.486Z,29.4
2022-08-18T10:36:31.479Z,29.4
2022-08-18T10:37:34.043Z,29.4
2022-08-18T10:38:39.973Z,29.4
2022-08-18T10:39:45.903Z,29.4
2022-08-18T10:40:52.399Z,29.4
2022-08-18T10:43:01.217Z,29.4
2022-08-18T10:45:10.566Z,29.4
2022-08-18T10:49:28.705Z,29.4
2022-08-18T10:50:31.126Z,29.4
2022-08-18T10:53:46.105Z,29.4
2022-08-18T10:55:54.346Z,29.4
2022-08-18T10:57:03.351Z,29.4
2022-08-18T10:58:06.629Z,29.4
2022-08-18T11:00:15.978Z,29.4
2022-08-18T11:01:20.597Z,29.4
2022-08-18T11:02:24.081Z,29.4
2022-08-18T11:05:41.305Z,29.4
2022-08-18T11:06:45.403Z,29.4
2022-08-18T11:12:39.997Z,29.4
2022-08-18T11:14:52.006Z,29.4
2022-08-18T11:15:55.004Z,29.4
2022-08-18T11:16:57.826Z,29.4
2022-08-18T11:18:01.104Z,29.4
2022-08-18T11:19:11.370Z,29.4
2022-08-18T11:20:20.025Z,29.4
2022-08-18T11:21:22.543Z,29.4
2022-08-18T11:23:31.968Z,29.4
2022-08-18T11:24:38.217Z,29.4
2022-08-18T11:25:42.338Z,29.4
2022-08-18T11:27:53.499Z,29.4
2022-08-18T11:28:55.999Z,29.4
2022-08-18T11:29:58.434Z,29.4
2022-08-18T11:31:01.220Z,29.4
2022-08-18T11:33:12.702Z,29.4
2022-08-18T11:34:20.514Z,29.4
2022-08-18T11:35:24.118Z,29.4
2022-08-18T11:36:30.590Z,29.4
2022-08-18T11:39:43.337Z,29.4
2022-08-18T11:41:55.147Z,29.4
2022-08-18T11:42:59.886Z,29.4
2022-08-18T11:44:08.519Z,29.4
2022-08-18T11:45:11.544Z,29.4
2022-08-18T11:46:13.766Z,29.4
2022-08-18T11:49:29.734Z,29.4
2022-08-18T11:50:37.140Z,29.4
2022-08-18T11:51:39.342Z,29.4
2022-08-18T11:52:46.015Z,29.4
2022-08-18T11:54:58.858Z,29.4
2022-08-18T11:56:01.915Z,29.4
2022-08-18T11:58:13.912Z,29.4
2022-08-18T11:59:16.405Z,29.4
2022-08-18T12:01:25.883Z,29.4
2022-08-18T12:02:32.801Z,29.4
2022-08-18T12:03:35.500Z,29.4
2022-08-18T12:04:38.002Z,29.4
2022-08-18T12:06:47.900Z,29.4
2022-08-18T12:13:17.312Z,29.4
2022-08-18T12:16:33.999Z,29.4
2022-08-18T12:17:40.069Z,29.4
2022-08-18T12:18:42.558Z,29.4
2022-08-18T12:19:52.953Z,29.4
2022-08-18T12:20:57.893Z,29.4
2022-08-18T12:24:15.860Z,29.4
2022-08-18T12:27:32.948Z,29.4
2022-08-18T12:28:35.695Z,29.4
2022-08-18T12:30:46.331Z,29.4
2022-08-18T12:31:49.961Z,29.4
2022-08-18T12:36:07.191Z,29.4
2022-08-18T12:38:18.569Z,29.4
2022-08-18T12:39:22.633Z,29.4
2022-08-18T12:40:27.238Z,29.4
2022-08-18T12:41:31.297Z,29.4
2022-08-18T12:43:38.783Z,29.4
2022-08-18T12:44:45.874Z,29.4
2022-08-18T12:45:48.079Z,29.4
2022-08-18T12:46:50.561Z,29.4
2022-08-18T12:48:59.360Z,29.4
2022-08-18T12:51:13.226Z,29.4
2022-08-18T12:52:18.981Z,29.4
2022-08-18T12:56:42.159Z,29.4
2022-08-18T12:58:49.375Z,29.4
2022-08-18T13:00:57.945Z,29.4
2022-08-18T13:02:01.748Z,29.4
2022-08-18T13:03:04.254Z,29.4
2022-08-18T13:05:13.178Z,29.4
2022-08-18T13:06:19.047Z,29.4
2022-08-18T13:07:23.081Z,29.4
2022-08-18T13:11:42.437Z,29.4
2022-08-18T13:12:44.640Z,29.4
2022-08-18T13:14:52.136Z,29.4
2022-08-18T13:16:59.344Z,29.4
2022-08-18T13:18:04.635Z,29.4
2022-08-18T13:20:14.158Z,29.4
2022-08-18T13:21:17.341Z,29.4
2022-08-18T13:23:26.530Z,29.4
2022-08-18T13:24:28.659Z,29.4
2022-08-18T13:26:35.718Z,29.4
2022-08-18T13:30:54.338Z,29.4
2022-08-18T13:31:59.763Z,29.4
2022-08-18T13:36:17.783Z,29.4
2022-08-18T13:37:23.408Z,29.4
2022-08-18T13:38:30.984Z,29.4
2022-08-18T13:43:53.483Z,29.4
2022-08-18T13:44:57.624Z,29.4
2022-08-18T13:46:05.886Z,29.4
2022-08-18T13:47:12.082Z,29.4
2022-08-18T13:48:15.218Z,29.4
2022-08-18T13:51:29.668Z,29.4
2022-08-18T13:54:42.872Z,29.4
2022-08-18T13:55:45.164Z,29.4
2022-08-18T13:57:55.309Z,29.4
2022-08-18T13:58:58.981Z,29.4
2022-08-18T14:00:01.199Z,29.4
2022-08-18T14:02:10.038Z,29.4
2022-08-18T14:07:31.218Z,29.4
2022-08-18T14:09:42.238Z,29.4
2022-08-18T14:11:52.360Z,29.4
2022-08-18T14:15:05.416Z,29.4
2022-08-18T14:17:12.352Z,29.4
2022-08-18T14:21:29.830Z,29.4
2022-08-18T14:22:32.052Z,29.4
2022-08-18T14:25:48.812Z,29.4
2022-08-18T14:26:53.096Z,29.4
2022-08-18T14:30:06.149Z,29.4
2022-08-18T14:31:09.019Z,29.4
2022-08-18T14:36:31.073Z,29.4
2022-08-18T14:37:37.485Z,29.4
2022-08-18T14:38:39.204Z,29.4
2022-08-18T14:40:47.820Z,29.4
2022-08-18T14:42:56.175Z,29.4
2022-08-18T14:48:35.006Z,29.4
2022-08-18T14:51:48.271Z,29.4
2022-08-18T14:52:51.998Z,29.4
2022-08-18T14:53:56.727Z,29.4
2022-08-18T14:54:58.649Z,29.4
2022-08-18T14:56:00.862Z,29.4
2022-08-18T14:57:03.763Z,29.4
2022-08-18T14:58:09.034Z,29.4
2022-08-18T14:59:14.549Z,29.4
2022-08-18T15:01:27.842Z,29.4
2022-08-18T15:02:34.463Z,29.4
2022-08-18T15:03:37.654Z,29.4
2022-08-18T15:05:45.792Z,29.4
2022-08-18T15:07:54.740Z,29.4
2022-08-18T15:09:01.128Z,29.4
2022-08-18T15:12:15.373Z,29.4
2022-08-18T15:13:20.563Z,29.4
2022-08-18T15:17:41.535Z,29.4
2022-08-18T15:18:44.499Z,29.4
2022-08-18T15:20:52.327Z,29.4
2022-08-18T15:21:57.148Z,29.4
2022-08-18T15:25:13.253Z,29.4
2022-08-18T15:28:30.203Z,29.4
2022-08-18T15:29:32.802Z,29.4
2022-08-18T15:30:34.892Z,29.4
2022-08-18T15:32:42.758Z,29.4
2022-08-18T15:34:51.850Z,29.4
2022-08-18T15:35:54.726Z,29.4
2022-08-18T15:36:57.288Z,29.4
2022-08-18T15:39:10.311Z,29.4
2022-08-18T15:41:20.466Z,29.4
2022-08-18T15:42:25.741Z,29.4
2022-08-18T15:44:35.345Z,29.4
2022-08-18T15:47:50.088Z,29.4
2022-08-18T15:48:53.981Z,29.4
2022-08-18T15:49:59.341Z,29.4
2022-08-18T15:53:15.506Z,29.4
2022-08-18T15:55:25.230Z,29.4
2022-08-18T15:56:28.697Z,29.4
2022-08-18T15:58:35.886Z,29.4
2022-08-18T15:59:41.082Z,29.4
2022-08-18T16:00:46.570Z,29.4
2022-08-18T16:01:51.007Z,29.4
2022-08-18T16:02:53.964Z,29.4
2022-08-18T16:03:58.040Z,29.4
2022-08-18T16:07:12.332Z,29.4
2022-08-18T16:08:15.172Z,29.4
2022-08-18T16:09:17.382Z,29.4
2022-08-18T16:10:19.863Z,29.4
2022-08-18T16:12:27.343Z,29.4
2022-08-18T16:13:29.525Z,29.4
2022-08-18T16:14:32.005Z,29.4
2022-08-18T16:16:38.665Z,29.4
2022-08-18T16:17:41.143Z,29.4
2022-08-18T16:18:43.627Z,29.4
2022-08-18T16:19:46.124Z,29.4
2022-08-18T16:21:55.748Z,29.4
2022-08-18T16:22:58.227Z,29.4
2022-08-18T16:24:00.433Z,29.4
2022-08-18T16:25:02.363Z,29.4
2022-08-18T16:26:05.474Z,29.4
2022-08-18T16:27:08.205Z,29.4
2022-08-18T16:28:09.842Z,29.4
2022-08-18T16:29:12.066Z,29.4
2022-08-18T16:30:14.546Z,29.4
2022-08-18T16:31:17.014Z,29.4
2022-08-18T16:32:19.251Z,29.4
2022-08-18T16:33:21.762Z,29.4
2022-08-18T16:34:24.240Z,29.4
2022-08-18T16:35:33.405Z,29.4
2022-08-18T16:36:35.461Z,29.4
2022-08-18T16:37:37.947Z,29.4
2022-08-18T16:38:40.339Z,29.4
2022-08-18T16:39:43.245Z,29.4
2022-08-18T16:40:45.717Z,29.4
2022-08-18T16:41:48.010Z,29.4
2022-08-18T16:43:54.948Z,29.4
2022-08-18T16:44:57.451Z,29.4
2022-08-18T16:45:59.707Z,29.4
2022-08-18T16:47:04.825Z,29.4
2022-08-18T16:48:07.302Z,29.4
2022-08-18T16:49:09.717Z,29.4
2022-08-18T16:50:12.199Z,29.4
2022-08-18T16:51:14.714Z,29.4
2022-08-18T16:52:19.059Z,29.4
2022-08-18T16:53:21.323Z,29.4
2022-08-18T16:54:23.832Z,29.4
2022-08-18T16:55:26.342Z,29.4
2022-08-18T16:56:28.864Z,29.4
2022-08-18T16:58:36.376Z,29.4
2022-08-18T16:59:38.571Z,29.4
2022-08-18T17:00:41.074Z,29.4
2022-08-18T17:02:48.818Z,29.4
2022-08-18T17:03:51.024Z,29.4
2022-08-18T17:04:53.537Z,29.4
2022-08-18T17:05:56.029Z,29.4
2022-08-18T17:06:58.240Z,29.4
2022-08-18T17:08:00.731Z,29.4
2022-08-18T17:10:08.254Z,29.4
2022-08-18T17:11:10.745Z,29.4
2022-08-18T17:12:12.954Z,29.4
2022-08-18T17:13:15.430Z,29.4
2022-08-18T17:15:22.903Z,29.4
2022-08-18T17:16:24.806Z,29.4
2022-08-18T17:17:26.734Z,29.4
2022-08-18T17:18:29.230Z,29.4
2022-08-18T17:19:31.421Z,29.4
2022-08-18T17:20:33.874Z,29.4
2022-08-18T17:21:36.357Z,29.4
2022-08-18T17:22:38.557Z,29.4
2022-08-18T17:23:41.040Z,29.4
2022-08-18T17:25:51.282Z,29.4
2022-08-18T17:26:53.219Z,29.4
2022-08-18T17:27:56.530Z,29.4
2022-08-18T17:28:58.725Z,29.4
2022-08-18T17:30:00.934Z,29.4
2022-08-18T17:31:03.406Z,29.4
2022-08-18T17:32:05.311Z,29.4
2022-08-18T17:33:07.783Z,29.5
2022-08-18T17:35:14.979Z,29.4
2022-08-18T17:36:17.450Z,29.4
2022-08-18T17:37:19.668Z,29.4
2022-08-18T17:38:21.886Z,29.4
2022-08-18T17:39:24.357Z,29.4
2022-08-18T17:41:32.578Z,29.4
2022-08-18T17:42:35.889Z,29.4
2022-08-18T17:45:48.046Z,29.5
2022-08-18T17:46:50.242Z,29.5
2022-08-18T17:47:52.761Z,29.5
2022-08-18T17:48:55.459Z,29.5
2022-08-18T17:51:02.679Z,29.4
2022-08-18T17:52:05.740Z,29.4
2022-08-18T17:53:08.227Z,29.4
2022-08-18T17:54:10.776Z,29.4
2022-08-18T17:56:18.021Z,29.4
2022-08-18T17:57:20.204Z,29.4
2022-08-18T17:58:22.410Z,29.4
2022-08-18T18:00:29.325Z,29.5
2022-08-18T18:01:32.242Z,29.5
2022-08-18T18:02:34.946Z,29.5
2022-08-18T18:04:44.442Z,29.5
2022-08-18T18:05:46.342Z,29.5
2022-08-18T18:07:56.148Z,29.5
2022-08-18T18:08:58.633Z,29.4
2022-08-18T18:10:01.137Z,29.5
2022-08-18T18:12:08.375Z,29.4
2022-08-18T18:13:10.590Z,29.4
2022-08-18T18:14:14.382Z,29.4
2022-08-18T18:15:16.596Z,29.4
2022-08-18T18:16:20.449Z,29.4
2022-08-18T18:17:22.652Z,29.4
2022-08-18T18:18:25.133Z,29.4
2022-08-18T18:19:27.047Z,29.4
2022-08-18T18:20:29.540Z,29.4
2022-08-18T18:22:36.738Z,29.4
2022-08-18T18:23:38.660Z,29.4